createdAt,value
2022-12-23T00:00:50.874Z,0
2022-12-23T00:02:07.176Z,0
2022-12-23T00:04:39.752Z,0
2022-12-23T00:05:56.050Z,0
2022-12-23T00:07:12.344Z,0
2022-12-23T00:08:28.644Z,0
2022-12-23T00:09:44.930Z,0
2022-12-23T00:11:01.223Z,0
2022-12-23T00:12:17.520Z,0
2022-12-23T00:13:33.838Z,0
2022-12-23T00:14:50.231Z,0
2022-12-23T00:16:06.523Z,0
2022-12-23T00:17:22.814Z,0
2022-12-23T00:18:39.112Z,0
2022-12-23T00:19:55.413Z,0
2022-12-23T00:21:11.697Z,0
2022-12-23T00:22:27.995Z,0
2022-12-23T00:23:44.297Z,0
2022-12-23T00:25:00.586Z,0
2022-12-23T00:26:16.885Z,0
2022-12-23T00:27:33.176Z,0
2022-12-23T00:28:49.466Z,0
2022-12-23T00:30:05.752Z,0
2022-12-23T00:31:21.060Z,0
2022-12-23T00:32:37.373Z,0
2022-12-23T00:33:53.648Z,0
2022-12-23T00:35:09.943Z,0
2022-12-23T00:36:26.237Z,0
2022-12-23T00:37:42.537Z,0
2022-12-23T00:38:58.824Z,0
2022-12-23T00:40:15.122Z,0
2022-12-23T00:41:31.429Z,0
2022-12-23T00:42:47.707Z,0
2022-12-23T00:44:04.018Z,0
2022-12-23T00:45:20.301Z,0
2022-12-23T00:46:36.597Z,0
2022-12-23T00:47:51.912Z,0
2022-12-23T00:49:08.193Z,0
2022-12-23T00:50:24.493Z,0
2022-12-23T00:51:40.787Z,0
2022-12-23T00:52:57.086Z,0
2022-12-23T00:54:13.383Z,0
2022-12-23T00:55:29.671Z,0
2022-12-23T00:56:45.963Z,0
2022-12-23T00:58:02.266Z,0
2022-12-23T00:59:18.562Z,0
2022-12-23T01:00:34.843Z,0
2022-12-23T01:01:51.144Z,0
2022-12-23T01:03:07.445Z,0
2022-12-23T01:04:22.745Z,0
2022-12-23T01:05:39.052Z,0
2022-12-23T01:06:55.334Z,0
2022-12-23T01:08:11.626Z,0
2022-12-23T01:09:27.924Z,0
2022-12-23T01:10:44.217Z,0
2022-12-23T01:12:00.505Z,0
2022-12-23T01:13:16.797Z,0
2022-12-23T01:14:33.106Z,0
2022-12-23T01:15:49.400Z,0
2022-12-23T01:17:05.686Z,0
2022-12-23T01:18:21.992Z,0
2022-12-23T01:19:38.269Z,0
2022-12-23T01:20:53.589Z,0
2022-12-23T01:22:09.888Z,0
2022-12-23T01:23:26.173Z,0
2022-12-23T01:24:42.465Z,0
2022-12-23T01:25:58.770Z,0
2022-12-23T01:27:15.062Z,0
2022-12-23T01:29:47.656Z,0
2022-12-23T01:31:03.935Z,0
2022-12-23T01:32:20.241Z,0
2022-12-23T01:33:36.519Z,0
2022-12-23T01:34:52.821Z,0
2022-12-23T01:36:09.114Z,0
2022-12-23T01:37:24.434Z,0
2022-12-23T01:38:40.724Z,0
2022-12-23T01:39:57.017Z,0
2022-12-23T01:41:13.312Z,0
2022-12-23T01:42:29.598Z,0
2022-12-23T01:43:45.900Z,0
2022-12-23T01:45:02.188Z,0
2022-12-23T01:46:18.484Z,0
2022-12-23T01:47:34.774Z,0
2022-12-23T01:48:51.068Z,0
2022-12-23T01:50:07.361Z,0
2022-12-23T01:51:23.656Z,0
2022-12-23T01:52:39.957Z,0
2022-12-23T01:53:55.272Z,0
2022-12-23T01:55:11.561Z,0
2022-12-23T01:56:27.845Z,0
2022-12-23T01:57:44.151Z,0
2022-12-23T01:59:00.440Z,0
2022-12-23T02:00:16.736Z,0
2022-12-23T02:01:33.041Z,0
2022-12-23T02:02:49.333Z,0
2022-12-23T02:04:05.621Z,0
2022-12-23T02:05:21.922Z,0
2022-12-23T02:06:38.211Z,0
2022-12-23T02:07:54.516Z,0
2022-12-23T02:09:10.788Z,0
2022-12-23T02:10:26.108Z,0
2022-12-23T02:11:42.407Z,0
2022-12-23T02:12:58.691Z,0
2022-12-23T02:14:14.989Z,0
2022-12-23T02:15:31.285Z,0
2022-12-23T02:16:47.584Z,0
2022-12-23T02:18:03.873Z,0
2022-12-23T02:19:20.173Z,0
2022-12-23T02:20:36.460Z,0
2022-12-23T02:21:52.749Z,0
2022-12-23T02:23:09.055Z,0
2022-12-23T02:24:25.338Z,0
2022-12-23T02:25:41.631Z,0
2022-12-23T02:26:56.946Z,0
2022-12-23T02:28:13.237Z,0
2022-12-23T02:29:29.527Z,0
2022-12-23T02:30:45.817Z,0
2022-12-23T02:32:02.114Z,0
2022-12-23T02:33:18.412Z,0
2022-12-23T02:34:34.701Z,0
2022-12-23T02:35:50.994Z,0
2022-12-23T02:37:07.303Z,0
2022-12-23T02:38:23.606Z,0
2022-12-23T02:39:39.879Z,0
2022-12-23T02:40:56.185Z,0
2022-12-23T02:42:12.476Z,0
2022-12-23T02:43:27.778Z,0
2022-12-23T02:44:44.075Z,0
2022-12-23T02:46:00.382Z,0
2022-12-23T02:47:16.669Z,0
2022-12-23T02:48:32.957Z,0
2022-12-23T02:49:49.258Z,0
2022-12-23T02:51:05.539Z,0
2022-12-23T02:53:38.138Z,0
2022-12-23T02:54:54.432Z,0
2022-12-23T02:56:10.731Z,0
2022-12-23T02:57:27.013Z,0
2022-12-23T02:58:43.317Z,0
2022-12-23T02:59:58.634Z,0
2022-12-23T03:01:14.915Z,0
2022-12-23T03:02:31.209Z,0
2022-12-23T03:03:47.511Z,0
2022-12-23T03:05:03.805Z,0
2022-12-23T03:06:20.103Z,0
2022-12-23T03:07:35.415Z,0
2022-12-23T03:08:51.697Z,0
2022-12-23T03:10:08.011Z,0
2022-12-23T03:11:24.294Z,0
2022-12-23T03:12:40.587Z,0
2022-12-23T03:13:56.889Z,0
2022-12-23T03:15:13.172Z,0
2022-12-23T03:16:29.477Z,0
2022-12-23T03:17:45.768Z,0
2022-12-23T03:19:02.056Z,0
2022-12-23T03:20:18.355Z,0
2022-12-23T03:21:34.654Z,0
2022-12-23T03:22:50.951Z,0
2022-12-23T03:24:06.254Z,0
2022-12-23T03:25:22.554Z,0
2022-12-23T03:26:38.834Z,0
2022-12-23T03:27:55.127Z,0
2022-12-23T03:29:11.426Z,0
2022-12-23T03:30:27.720Z,0
2022-12-23T03:31:44.016Z,0
2022-12-23T03:33:00.320Z,0
2022-12-23T03:34:16.601Z,0
2022-12-23T03:35:32.897Z,0
2022-12-23T03:36:49.188Z,0
2022-12-23T03:38:05.483Z,0
2022-12-23T03:39:21.773Z,0
2022-12-23T03:40:37.099Z,0
2022-12-23T03:41:53.384Z,0
2022-12-23T03:43:09.687Z,0
2022-12-23T03:44:25.971Z,0
2022-12-23T03:45:42.274Z,0
2022-12-23T03:46:58.560Z,0
2022-12-23T03:48:14.865Z,0
2022-12-23T03:49:31.161Z,0
2022-12-23T03:50:47.440Z,0
2022-12-23T03:52:03.750Z,0
2022-12-23T03:53:20.043Z,0
2022-12-23T03:54:36.320Z,0
2022-12-23T03:55:52.625Z,0
2022-12-23T03:57:07.929Z,0
2022-12-23T03:58:24.218Z,0
2022-12-23T03:59:40.520Z,0
2022-12-23T04:00:56.812Z,0
2022-12-23T04:02:13.100Z,0
2022-12-23T04:03:29.413Z,0
2022-12-23T04:04:45.702Z,0
2022-12-23T04:06:02.000Z,0
2022-12-23T04:07:18.282Z,0
2022-12-23T04:08:34.575Z,0
2022-12-23T04:09:50.883Z,0
2022-12-23T04:11:07.158Z,0
2022-12-23T04:12:23.464Z,0
2022-12-23T04:13:38.770Z,0
2022-12-23T04:14:55.071Z,0
2022-12-23T04:16:11.365Z,0
2022-12-23T04:17:27.650Z,0
2022-12-23T04:18:43.939Z,0
2022-12-23T04:20:00.233Z,0
2022-12-23T04:21:16.529Z,0
2022-12-23T04:22:32.832Z,0
2022-12-23T04:23:49.114Z,0
2022-12-23T04:25:05.414Z,0
2022-12-23T04:26:21.702Z,0
2022-12-23T04:27:38.003Z,0
2022-12-23T04:28:54.303Z,0
2022-12-23T04:30:09.615Z,0
2022-12-23T04:31:25.894Z,0
2022-12-23T04:32:42.193Z,0
2022-12-23T04:33:58.487Z,0
2022-12-23T04:35:14.782Z,0
2022-12-23T04:36:31.086Z,0
2022-12-23T04:37:47.386Z,0
2022-12-23T04:39:03.672Z,0
2022-12-23T04:40:19.955Z,0
2022-12-23T04:41:36.249Z,0
2022-12-23T04:42:52.549Z,0
2022-12-23T04:44:08.844Z,0
2022-12-23T04:45:25.147Z,0
2022-12-23T04:46:40.443Z,0
2022-12-23T04:47:56.740Z,0
2022-12-23T04:49:13.038Z,0
2022-12-23T04:50:29.343Z,0
2022-12-23T04:51:45.618Z,0
2022-12-23T04:53:01.920Z,0
2022-12-23T04:54:18.224Z,0
2022-12-23T04:55:34.509Z,0
2022-12-23T04:56:50.800Z,0
2022-12-23T04:58:07.098Z,0
2022-12-23T04:59:23.389Z,0
2022-12-23T05:00:39.691Z,0
2022-12-23T05:01:55.977Z,0
2022-12-23T05:03:11.290Z,0
2022-12-23T05:04:27.594Z,0
2022-12-23T05:05:43.876Z,0
2022-12-23T05:07:00.165Z,0
2022-12-23T05:08:16.459Z,0
2022-12-23T05:09:32.762Z,0
2022-12-23T05:10:49.059Z,0
2022-12-23T05:12:05.350Z,0
2022-12-23T05:13:21.653Z,0
2022-12-23T05:14:37.930Z,0
2022-12-23T05:15:54.237Z,0
2022-12-23T05:17:10.523Z,0
2022-12-23T05:18:26.818Z,0
2022-12-23T05:19:42.133Z,0
2022-12-23T05:20:58.420Z,0
2022-12-23T05:22:14.729Z,0
2022-12-23T05:23:31.000Z,0
2022-12-23T05:24:47.300Z,0
2022-12-23T05:26:03.600Z,0
2022-12-23T05:27:19.904Z,0
2022-12-23T05:28:36.197Z,0
2022-12-23T05:29:52.491Z,0
2022-12-23T05:31:08.787Z,0
2022-12-23T05:32:25.073Z,0
2022-12-23T05:33:41.364Z,0
2022-12-23T05:34:57.656Z,0
2022-12-23T05:36:12.963Z,0
2022-12-23T05:37:29.272Z,0
2022-12-23T05:38:45.550Z,0
2022-12-23T05:40:01.842Z,0
2022-12-23T05:41:18.139Z,0
2022-12-23T05:42:34.437Z,0
2022-12-23T05:43:50.744Z,0
2022-12-23T05:45:07.040Z,0
2022-12-23T05:46:23.320Z,0
2022-12-23T05:47:39.609Z,0
2022-12-23T05:48:55.900Z,0
2022-12-23T05:50:12.203Z,0
2022-12-23T05:51:28.508Z,0
2022-12-23T05:52:43.818Z,0
2022-12-23T05:54:00.104Z,0
2022-12-23T05:55:16.399Z,0
2022-12-23T05:56:32.699Z,0
2022-12-23T05:57:48.988Z,0
2022-12-23T05:59:05.275Z,0
2022-12-23T06:00:21.569Z,0
2022-12-23T06:01:37.874Z,0
2022-12-23T06:02:54.156Z,0
2022-12-23T06:04:10.447Z,0
2022-12-23T06:05:26.749Z,0
2022-12-23T06:06:43.048Z,0
2022-12-23T06:07:59.343Z,0
2022-12-23T06:09:14.647Z,0
2022-12-23T06:10:30.939Z,0
2022-12-23T06:11:47.244Z,0
2022-12-23T06:13:03.529Z,0
2022-12-23T06:14:19.830Z,0
2022-12-23T06:15:36.113Z,0
2022-12-23T06:16:52.412Z,0
2022-12-23T06:18:08.712Z,0
2022-12-23T06:19:24.997Z,0
2022-12-23T06:20:41.288Z,0
2022-12-23T06:21:57.598Z,0
2022-12-23T06:23:13.898Z,0
2022-12-23T06:24:30.179Z,0
2022-12-23T06:25:45.485Z,0
2022-12-23T06:27:01.785Z,0
2022-12-23T06:28:18.071Z,0
2022-12-23T06:29:34.374Z,0
2022-12-23T06:30:50.666Z,0
2022-12-23T06:32:06.954Z,0
2022-12-23T06:33:23.255Z,0
2022-12-23T06:34:39.557Z,0
2022-12-23T06:35:55.839Z,0
2022-12-23T06:37:12.128Z,0
2022-12-23T06:38:28.428Z,0
2022-12-23T06:39:44.732Z,0
2022-12-23T06:41:01.027Z,0
2022-12-23T06:42:16.336Z,0
2022-12-23T06:43:32.624Z,0
2022-12-23T06:44:48.861Z,1
2022-12-23T06:46:05.154Z,0
2022-12-23T06:47:21.414Z,1
2022-12-23T06:48:37.644Z,1
2022-12-23T06:49:53.952Z,0
2022-12-23T06:51:10.194Z,2
2022-12-23T06:52:26.433Z,1
2022-12-23T06:53:42.729Z,0
2022-12-23T06:54:58.970Z,1
2022-12-23T06:56:15.223Z,1
2022-12-23T06:57:31.459Z,1
2022-12-23T06:58:46.709Z,2
2022-12-23T07:00:02.972Z,2
2022-12-23T07:01:19.209Z,1
2022-12-23T07:02:35.450Z,1
2022-12-23T07:03:51.685Z,2
2022-12-23T07:05:07.938Z,3
2022-12-23T07:06:24.164Z,5
2022-12-23T07:07:40.417Z,7
2022-12-23T07:08:56.643Z,8
2022-12-23T07:10:12.896Z,9
2022-12-23T07:11:29.136Z,8
2022-12-23T07:12:45.360Z,16
2022-12-23T07:14:01.602Z,20
2022-12-23T07:15:16.859Z,21
2022-12-23T07:16:33.096Z,20
2022-12-23T07:17:49.341Z,23
2022-12-23T07:19:05.594Z,25
2022-12-23T07:20:21.835Z,25
2022-12-23T07:21:38.074Z,30
2022-12-23T07:22:53.337Z,37
2022-12-23T07:24:09.559Z,44
2022-12-23T07:25:25.813Z,48
2022-12-23T07:26:42.047Z,53
2022-12-23T07:27:58.288Z,54
2022-12-23T07:29:14.520Z,59
2022-12-23T07:30:30.779Z,61
2022-12-23T07:31:47.022Z,64
2022-12-23T07:33:03.245Z,68
2022-12-23T07:34:19.500Z,74
2022-12-23T07:35:35.720Z,80
2022-12-23T07:36:51.968Z,85
2022-12-23T07:38:08.205Z,92
2022-12-23T07:39:23.463Z,91
2022-12-23T07:40:39.714Z,112
2022-12-23T07:41:55.945Z,127
2022-12-23T07:43:12.185Z,145
2022-12-23T07:44:28.427Z,163
2022-12-23T07:45:44.668Z,181
2022-12-23T07:47:00.901Z,177
2022-12-23T07:48:17.148Z,166
2022-12-23T07:49:33.379Z,153
2022-12-23T07:50:49.618Z,146
2022-12-23T07:52:05.868Z,139
2022-12-23T07:53:22.104Z,155
2022-12-23T07:54:38.353Z,179
2022-12-23T07:55:53.599Z,230
2022-12-23T07:57:09.848Z,249
2022-12-23T07:58:26.087Z,245
2022-12-23T07:59:42.332Z,235
2022-12-23T08:00:58.565Z,227
2022-12-23T08:02:14.815Z,210
2022-12-23T08:03:31.042Z,200
2022-12-23T08:04:47.280Z,201
2022-12-23T08:06:03.523Z,216
2022-12-23T08:07:19.770Z,286
2022-12-23T08:08:36.011Z,333
2022-12-23T08:09:52.245Z,321
2022-12-23T08:11:08.489Z,431
2022-12-23T08:12:23.738Z,424
2022-12-23T08:13:39.987Z,335
2022-12-23T08:14:56.214Z,286
2022-12-23T08:16:12.462Z,290
2022-12-23T08:17:28.699Z,281
2022-12-23T08:18:44.949Z,368
2022-12-23T08:20:01.173Z,365
2022-12-23T08:21:17.428Z,305
2022-12-23T08:22:33.665Z,291
2022-12-23T08:23:49.895Z,395
2022-12-23T08:25:06.143Z,449
2022-12-23T08:26:22.383Z,477
2022-12-23T08:27:38.626Z,558
2022-12-23T08:28:53.871Z,556
2022-12-23T08:30:10.120Z,581
2022-12-23T08:31:26.367Z,610
2022-12-23T08:32:42.597Z,752
2022-12-23T08:33:58.841Z,613
2022-12-23T08:35:15.078Z,664
2022-12-23T08:36:31.331Z,728
2022-12-23T08:37:47.556Z,715
2022-12-23T08:39:03.813Z,745
2022-12-23T08:40:20.047Z,713
2022-12-23T08:41:36.272Z,641
2022-12-23T08:42:52.534Z,549
2022-12-23T08:44:08.765Z,513
2022-12-23T08:45:24.009Z,509
2022-12-23T08:46:40.251Z,551
2022-12-23T08:47:56.503Z,563
2022-12-23T08:49:12.747Z,617
2022-12-23T08:50:28.990Z,673
2022-12-23T08:51:45.220Z,648
2022-12-23T08:53:01.454Z,568
2022-12-23T08:54:17.700Z,508
2022-12-23T08:55:33.937Z,465
2022-12-23T08:56:50.190Z,436
2022-12-23T08:58:06.439Z,437
2022-12-23T08:59:22.665Z,494
2022-12-23T09:00:38.915Z,515
2022-12-23T09:01:54.162Z,558
2022-12-23T09:03:10.401Z,568
2022-12-23T09:04:26.632Z,672
2022-12-23T09:05:42.882Z,779
2022-12-23T09:06:59.120Z,747
2022-12-23T09:08:15.352Z,741
2022-12-23T09:09:31.594Z,723
2022-12-23T09:10:47.843Z,717
2022-12-23T09:12:04.084Z,905
2022-12-23T09:13:20.327Z,881
2022-12-23T09:14:36.568Z,705
2022-12-23T09:15:52.797Z,611
2022-12-23T09:17:09.042Z,632
2022-12-23T09:18:24.312Z,668
2022-12-23T09:19:40.539Z,633
2022-12-23T09:20:56.779Z,597
2022-12-23T09:22:13.025Z,622
2022-12-23T09:23:29.251Z,699
2022-12-23T09:24:45.494Z,758
2022-12-23T09:26:01.731Z,802
2022-12-23T09:27:17.972Z,808
2022-12-23T09:28:34.222Z,734
2022-12-23T09:29:50.461Z,642
2022-12-23T09:31:06.692Z,595
2022-12-23T09:32:22.947Z,594
2022-12-23T09:33:39.187Z,593
2022-12-23T09:34:54.424Z,680
2022-12-23T09:36:10.669Z,1074
2022-12-23T09:37:26.908Z,1574
2022-12-23T09:38:43.145Z,1326
2022-12-23T09:39:59.390Z,1270
2022-12-23T09:41:15.641Z,2563
2022-12-23T09:42:31.871Z,2948
2022-12-23T09:43:48.113Z,3026
2022-12-23T09:45:04.348Z,2309
2022-12-23T09:46:20.601Z,2288
2022-12-23T09:47:36.834Z,1897
2022-12-23T09:48:53.077Z,1555
2022-12-23T09:50:09.324Z,1290
2022-12-23T09:51:24.574Z,1163
2022-12-23T09:52:40.815Z,984
2022-12-23T09:53:57.043Z,918
2022-12-23T09:55:13.287Z,947
2022-12-23T09:56:29.530Z,1068
2022-12-23T09:57:45.774Z,1021
2022-12-23T09:59:02.018Z,955
2022-12-23T10:00:18.260Z,1015
2022-12-23T10:01:34.497Z,1115
2022-12-23T10:02:50.731Z,855
2022-12-23T10:04:06.971Z,1046
2022-12-23T10:05:23.207Z,1208
2022-12-23T10:06:39.460Z,1039
2022-12-23T10:07:54.716Z,1091
2022-12-23T10:09:10.938Z,886
2022-12-23T10:10:27.186Z,1024
2022-12-23T10:11:43.431Z,1153
2022-12-23T10:12:59.670Z,982
2022-12-23T10:14:15.927Z,788
2022-12-23T10:15:32.139Z,689
2022-12-23T10:16:48.393Z,695
2022-12-23T10:18:04.638Z,572
2022-12-23T10:19:20.876Z,481
2022-12-23T10:20:37.116Z,705
2022-12-23T10:21:53.338Z,699
2022-12-23T10:23:09.579Z,554
2022-12-23T10:24:24.853Z,655
2022-12-23T10:25:41.086Z,699
2022-12-23T10:26:57.334Z,511
2022-12-23T10:28:13.562Z,1083
2022-12-23T10:29:29.804Z,1045
2022-12-23T10:30:46.053Z,924
2022-12-23T10:32:02.291Z,831
2022-12-23T10:33:18.529Z,626
2022-12-23T10:34:34.764Z,475
2022-12-23T10:35:50.999Z,433
2022-12-23T10:37:07.256Z,430
2022-12-23T10:38:23.490Z,459
2022-12-23T10:39:39.716Z,710
2022-12-23T10:40:54.998Z,561
2022-12-23T10:42:11.224Z,596
2022-12-23T10:43:27.460Z,691
2022-12-23T10:44:43.694Z,644
2022-12-23T10:45:59.942Z,662
2022-12-23T10:47:16.181Z,890
2022-12-23T10:48:32.421Z,1084
2022-12-23T10:49:48.675Z,1314
2022-12-23T10:51:04.902Z,1613
2022-12-23T10:52:21.132Z,2087
2022-12-23T10:53:37.372Z,2673
2022-12-23T10:54:53.623Z,2159
2022-12-23T10:56:09.865Z,1593
2022-12-23T10:57:25.123Z,1650
2022-12-23T10:58:41.363Z,2029
2022-12-23T10:59:57.607Z,1956
2022-12-23T11:01:13.834Z,1932
2022-12-23T11:02:30.069Z,1954
2022-12-23T11:03:46.314Z,1505
2022-12-23T11:05:02.550Z,1882
2022-12-23T11:06:18.802Z,1972
2022-12-23T11:07:35.047Z,1846
2022-12-23T11:08:51.269Z,1702
2022-12-23T11:10:07.514Z,1694
2022-12-23T11:11:23.750Z,1784
2022-12-23T11:12:40.002Z,1865
2022-12-23T11:13:55.264Z,1743
2022-12-23T11:15:11.501Z,1764
2022-12-23T11:16:27.733Z,2470
2022-12-23T11:17:43.975Z,2495
2022-12-23T11:19:00.000Z,2033
2022-12-23T11:20:16.456Z,1835
2022-12-23T11:21:32.689Z,1550
2022-12-23T11:22:48.933Z,1392
2022-12-23T11:24:05.172Z,1312
2022-12-23T11:25:21.410Z,1197
2022-12-23T11:26:37.648Z,1100
2022-12-23T11:27:53.887Z,986
2022-12-23T11:29:10.146Z,877
2022-12-23T11:30:26.371Z,904
2022-12-23T11:31:41.640Z,904
2022-12-23T11:32:57.869Z,929
2022-12-23T11:34:14.118Z,965
2022-12-23T11:35:30.356Z,953
2022-12-23T11:36:46.583Z,817
2022-12-23T11:38:01.861Z,808
2022-12-23T11:39:18.098Z,829
2022-12-23T11:40:34.331Z,928
2022-12-23T11:41:50.568Z,1055
2022-12-23T11:43:06.810Z,1261
2022-12-23T11:44:23.053Z,1310
2022-12-23T11:45:39.287Z,1377
2022-12-23T11:46:55.545Z,1434
2022-12-23T11:48:11.779Z,1504
2022-12-23T11:49:28.009Z,1803
2022-12-23T11:50:44.267Z,2060
2022-12-23T11:52:00.504Z,2066
2022-12-23T11:53:16.735Z,1673
2022-12-23T11:54:31.995Z,1529
2022-12-23T11:55:48.238Z,1291
2022-12-23T11:57:04.463Z,1424
2022-12-23T11:58:20.712Z,1585
2022-12-23T11:59:36.958Z,2076
2022-12-23T12:00:53.185Z,2993
2022-12-23T12:02:09.423Z,3493
2022-12-23T12:03:25.672Z,3117
2022-12-23T12:04:41.916Z,3066
2022-12-23T12:05:58.150Z,2852
2022-12-23T12:07:14.382Z,2659
2022-12-23T12:08:30.621Z,2556
2022-12-23T12:09:46.872Z,1860
2022-12-23T12:11:02.131Z,1360
2022-12-23T12:12:18.370Z,952
2022-12-23T12:13:34.599Z,1067
2022-12-23T12:14:50.837Z,2062
2022-12-23T12:16:07.096Z,1821
2022-12-23T12:17:23.336Z,1648
2022-12-23T12:18:39.561Z,1634
2022-12-23T12:19:55.823Z,1253
2022-12-23T12:21:12.059Z,1034
2022-12-23T12:22:28.291Z,730
2022-12-23T12:23:44.533Z,2055
2022-12-23T12:25:00.760Z,1521
2022-12-23T12:26:17.015Z,1285
2022-12-23T12:27:32.258Z,1764
2022-12-23T12:28:48.500Z,1784
2022-12-23T12:30:04.744Z,1580
2022-12-23T12:31:20.984Z,2194
2022-12-23T12:32:37.217Z,1759
2022-12-23T12:33:53.470Z,2023
2022-12-23T12:35:09.704Z,1601
2022-12-23T12:36:25.947Z,1035
2022-12-23T12:37:42.188Z,1238
2022-12-23T12:38:58.416Z,1770
2022-12-23T12:40:14.662Z,1997
2022-12-23T12:41:30.910Z,1555
2022-12-23T12:42:47.147Z,1618
2022-12-23T12:44:02.392Z,1914
2022-12-23T12:45:18.646Z,1797
2022-12-23T12:46:34.887Z,1506
2022-12-23T12:47:51.111Z,1247
2022-12-23T12:49:07.371Z,999
2022-12-23T12:50:23.606Z,747
2022-12-23T12:51:39.833Z,565
2022-12-23T12:52:56.072Z,482
2022-12-23T12:54:12.328Z,451
2022-12-23T12:55:28.563Z,420
2022-12-23T12:56:44.792Z,451
2022-12-23T12:58:01.039Z,455
2022-12-23T12:59:17.287Z,433
2022-12-23T13:00:32.527Z,456
2022-12-23T13:01:48.779Z,480
2022-12-23T13:03:05.014Z,485
2022-12-23T13:04:21.262Z,643
2022-12-23T13:05:37.504Z,732
2022-12-23T13:06:53.741Z,792
2022-12-23T13:08:09.975Z,827
2022-12-23T13:09:26.210Z,781
2022-12-23T13:10:42.455Z,657
2022-12-23T13:11:58.695Z,556
2022-12-23T13:13:14.940Z,458
2022-12-23T13:14:31.182Z,443
2022-12-23T13:15:47.407Z,475
2022-12-23T13:17:02.691Z,483
2022-12-23T13:18:18.906Z,465
2022-12-23T13:19:35.161Z,460
2022-12-23T13:20:51.389Z,461
2022-12-23T13:22:07.626Z,430
2022-12-23T13:23:23.870Z,412
2022-12-23T13:24:40.117Z,406
2022-12-23T13:25:56.357Z,390
2022-12-23T13:27:12.594Z,365
2022-12-23T13:28:28.827Z,374
2022-12-23T13:29:45.068Z,395
2022-12-23T13:31:01.307Z,401
2022-12-23T13:32:17.565Z,388
2022-12-23T13:33:32.806Z,368
2022-12-23T13:34:49.040Z,333
2022-12-23T13:36:05.291Z,295
2022-12-23T13:37:21.538Z,258
2022-12-23T13:38:37.758Z,232
2022-12-23T13:39:54.010Z,234
2022-12-23T13:41:10.261Z,253
2022-12-23T13:42:26.495Z,275
2022-12-23T13:43:42.723Z,268
2022-12-23T13:44:58.966Z,243
2022-12-23T13:46:15.202Z,199
2022-12-23T13:47:31.453Z,185
2022-12-23T13:48:47.695Z,174
2022-12-23T13:50:02.952Z,159
2022-12-23T13:51:19.190Z,143
2022-12-23T13:52:35.424Z,127
2022-12-23T13:53:51.664Z,114
2022-12-23T13:55:07.902Z,109
2022-12-23T13:56:24.156Z,105
2022-12-23T13:57:40.394Z,105
2022-12-23T13:58:56.634Z,111
2022-12-23T14:00:12.881Z,112
2022-12-23T14:01:29.105Z,110
2022-12-23T14:02:45.346Z,90
2022-12-23T14:04:01.588Z,72
2022-12-23T14:05:17.833Z,59
2022-12-23T14:06:33.090Z,50
2022-12-23T14:07:49.314Z,46
2022-12-23T14:09:05.552Z,42
2022-12-23T14:10:21.799Z,41
2022-12-23T14:11:38.054Z,40
2022-12-23T14:12:54.276Z,40
2022-12-23T14:14:10.520Z,39
2022-12-23T14:15:26.755Z,41
2022-12-23T14:16:43.010Z,38
2022-12-23T14:17:59.249Z,38
2022-12-23T14:19:15.485Z,38
2022-12-23T14:20:31.725Z,39
2022-12-23T14:21:47.962Z,39
2022-12-23T14:23:03.221Z,39
2022-12-23T14:24:19.456Z,39
2022-12-23T14:25:35.691Z,40
2022-12-23T14:26:51.946Z,41
2022-12-23T14:28:08.175Z,45
2022-12-23T14:29:24.418Z,47
2022-12-23T14:30:40.651Z,49
2022-12-23T14:31:56.906Z,48
2022-12-23T14:33:13.128Z,48
2022-12-23T14:34:29.384Z,48
2022-12-23T14:35:45.623Z,47
2022-12-23T14:37:01.861Z,48
2022-12-23T14:38:18.104Z,47
2022-12-23T14:39:33.350Z,46
2022-12-23T14:40:49.584Z,44
2022-12-23T14:42:05.842Z,43
2022-12-23T14:43:22.088Z,41
2022-12-23T14:44:38.309Z,38
2022-12-23T14:45:54.544Z,37
2022-12-23T14:47:10.802Z,39
2022-12-23T14:48:27.044Z,35
2022-12-23T14:49:43.267Z,34
2022-12-23T14:50:59.519Z,33
2022-12-23T14:52:15.764Z,31
2022-12-23T14:53:31.989Z,34
2022-12-23T14:54:48.244Z,33
2022-12-23T14:56:03.497Z,28
2022-12-23T14:57:19.745Z,25
2022-12-23T14:58:35.962Z,22
2022-12-23T14:59:52.214Z,21
2022-12-23T15:01:08.458Z,18
2022-12-23T15:03:40.938Z,18
2022-12-23T15:04:57.188Z,18
2022-12-23T15:06:13.402Z,18
2022-12-23T15:07:29.663Z,18
2022-12-23T15:08:45.904Z,18
2022-12-23T15:10:02.134Z,13
2022-12-23T15:11:18.376Z,13
2022-12-23T15:12:34.727Z,11
2022-12-23T15:13:50.967Z,13
2022-12-23T15:15:07.217Z,15
2022-12-23T15:16:23.461Z,13
2022-12-23T15:18:55.945Z,10
2022-12-23T15:20:12.169Z,8
2022-12-23T15:21:28.420Z,6
2022-12-23T15:22:44.647Z,3
2022-12-23T15:24:00.893Z,2
2022-12-23T15:25:17.132Z,2
2022-12-23T15:26:33.365Z,1
2022-12-23T15:27:49.617Z,1
2022-12-23T15:29:04.862Z,1
2022-12-23T15:30:21.162Z,0
2022-12-23T15:31:37.462Z,0
2022-12-23T15:32:53.745Z,0
2022-12-23T15:34:10.061Z,0
2022-12-23T15:35:26.335Z,0
2022-12-23T15:36:42.642Z,0
2022-12-23T15:37:58.923Z,0
2022-12-23T15:39:15.230Z,0
2022-12-23T15:40:31.508Z,0
2022-12-23T15:41:47.816Z,0
2022-12-23T15:43:04.124Z,0
2022-12-23T15:44:20.392Z,0
2022-12-23T15:45:35.725Z,0
2022-12-23T15:46:51.996Z,0
2022-12-23T15:48:08.295Z,0
2022-12-23T15:49:24.585Z,0
2022-12-23T15:50:40.893Z,0
2022-12-23T15:51:57.189Z,0
2022-12-23T15:53:12.486Z,0
2022-12-23T15:54:28.780Z,0
2022-12-23T15:55:45.072Z,0
2022-12-23T15:57:01.369Z,0
2022-12-23T15:58:17.670Z,0
2022-12-23T15:59:33.955Z,0
2022-12-23T16:00:50.267Z,0
2022-12-23T16:02:06.560Z,0
2022-12-23T16:03:22.838Z,0
2022-12-23T16:04:39.145Z,0
2022-12-23T16:05:55.433Z,0
2022-12-23T16:07:11.736Z,0
2022-12-23T16:08:28.024Z,0
2022-12-23T16:09:43.334Z,0
2022-12-23T16:10:59.630Z,0
2022-12-23T16:12:15.928Z,0
2022-12-23T16:13:32.208Z,0
2022-12-23T16:14:48.501Z,0
2022-12-23T16:16:04.810Z,0
2022-12-23T16:17:21.104Z,0
2022-12-23T16:18:37.400Z,0
2022-12-23T16:19:53.679Z,0
2022-12-23T16:21:09.969Z,0
2022-12-23T16:22:26.289Z,0
2022-12-23T16:23:42.577Z,0
2022-12-23T16:24:58.853Z,0
2022-12-23T16:26:14.163Z,0
2022-12-23T16:27:30.477Z,0
2022-12-23T16:28:46.752Z,0
2022-12-23T16:30:03.061Z,0
2022-12-23T16:31:19.352Z,0
2022-12-23T16:32:35.650Z,0
2022-12-23T16:33:51.932Z,0
2022-12-23T16:35:08.239Z,0
2022-12-23T16:36:24.518Z,0
2022-12-23T16:37:40.820Z,0
2022-12-23T16:38:57.104Z,0
2022-12-23T16:40:13.407Z,0
2022-12-23T16:42:46.000Z,0
2022-12-23T16:44:01.316Z,0
2022-12-23T16:45:17.618Z,0
2022-12-23T16:46:33.910Z,0
2022-12-23T16:47:50.197Z,0
2022-12-23T16:49:06.485Z,0
2022-12-23T16:50:22.774Z,0
2022-12-23T16:51:39.059Z,0
2022-12-23T16:52:55.382Z,0
2022-12-23T16:54:11.658Z,0
2022-12-23T16:55:27.945Z,0
2022-12-23T16:56:44.253Z,0
2022-12-23T16:58:00.534Z,0
2022-12-23T16:59:16.842Z,0
2022-12-23T17:00:32.142Z,0
2022-12-23T17:01:48.427Z,0
2022-12-23T17:03:04.722Z,0
2022-12-23T17:04:21.027Z,0
2022-12-23T17:05:37.327Z,0
2022-12-23T17:06:53.628Z,0
2022-12-23T17:08:09.913Z,0
2022-12-23T17:09:26.208Z,0
2022-12-23T17:10:42.486Z,0
2022-12-23T17:11:58.800Z,0
2022-12-23T17:13:15.090Z,0
2022-12-23T17:14:31.368Z,0
2022-12-23T17:15:47.676Z,0
2022-12-23T17:17:02.984Z,0
2022-12-23T17:18:19.290Z,0
2022-12-23T17:19:35.577Z,0
2022-12-23T17:20:51.873Z,0
2022-12-23T17:22:08.173Z,0
2022-12-23T17:23:24.467Z,0
2022-12-23T17:24:40.737Z,0
2022-12-23T17:25:57.045Z,0
2022-12-23T17:27:13.327Z,0
2022-12-23T17:28:29.620Z,0
2022-12-23T17:29:45.941Z,0
2022-12-23T17:31:02.208Z,0
2022-12-23T17:32:18.522Z,0
2022-12-23T17:33:33.819Z,0
2022-12-23T17:34:50.120Z,0
2022-12-23T17:36:06.403Z,0
2022-12-23T17:37:22.711Z,0
2022-12-23T17:38:38.999Z,0
2022-12-23T17:39:55.284Z,0
2022-12-23T17:41:11.603Z,0
2022-12-23T17:42:27.870Z,0
2022-12-23T17:43:44.184Z,0
2022-12-23T17:45:00.496Z,0
2022-12-23T17:46:16.774Z,0
2022-12-23T17:47:33.066Z,0
2022-12-23T17:48:49.353Z,0
2022-12-23T17:50:04.653Z,0
2022-12-23T17:51:20.951Z,0
2022-12-23T17:52:37.246Z,0
2022-12-23T17:53:53.545Z,0
2022-12-23T17:55:09.841Z,0
2022-12-23T17:56:26.145Z,0
2022-12-23T17:57:42.424Z,0
2022-12-23T17:58:58.730Z,0
2022-12-23T18:00:15.010Z,0
2022-12-23T18:01:31.315Z,0
2022-12-23T18:02:47.603Z,0
2022-12-23T18:04:03.892Z,0
2022-12-23T18:05:20.181Z,0
2022-12-23T18:06:35.496Z,0
2022-12-23T18:07:51.813Z,0
2022-12-23T18:09:08.096Z,0
2022-12-23T18:10:24.379Z,0
2022-12-23T18:11:40.673Z,0
2022-12-23T18:12:56.981Z,0
2022-12-23T18:14:13.289Z,0
2022-12-23T18:15:29.556Z,0
2022-12-23T18:16:45.844Z,0
2022-12-23T18:18:02.161Z,0